createdAt,value
2022-08-04T00:07:44.240Z,73.57
2022-08-04T00:12:48.187Z,74.34
2022-08-04T00:17:47.628Z,73.98
2022-08-04T00:22:45.381Z,73.82
2022-08-04T00:27:38.337Z,75.05
2022-08-04T00:32:34.582Z,76.16
2022-08-04T00:37:27.477Z,76.50
2022-08-04T00:42:58.708Z,77.31
2022-08-04T00:48:18.707Z,77.83
2022-08-04T00:53:40.071Z,77.76
2022-08-04T00:58:59.720Z,77.92
2022-08-04T01:04:06.004Z,78.29
2022-08-04T01:09:44.682Z,78.09
2022-08-04T01:15:08.538Z,79.19
2022-08-04T01:20:14.301Z,80.47
2022-08-04T01:26:42.991Z,80.40
2022-08-04T01:32:00.043Z,80.93
2022-08-04T01:37:34.917Z,81.97
2022-08-04T01:42:32.151Z,83.32
2022-08-04T01:47:29.517Z,83.53
2022-08-04T01:52:24.504Z,83.84
2022-08-04T01:57:38.782Z,83.72
2022-08-04T02:02:30.739Z,82.75
2022-08-04T02:07:43.820Z,81.85
2022-08-04T02:13:11.930Z,82.05
2022-08-04T02:18:24.404Z,82.15
2022-08-04T02:23:31.457Z,82.11
2022-08-04T02:28:52.725Z,82.19
2022-08-04T02:33:56.388Z,83.19
2022-08-04T02:39:03.954Z,81.29
2022-08-04T02:44:00.784Z,81.41
2022-08-04T02:48:55.517Z,82.67
2022-08-04T02:53:54.408Z,80.79
2022-08-04T02:58:52.623Z,82.36
2022-08-04T03:04:22.828Z,81.34
2022-08-04T03:09:28.568Z,80.31
2022-08-04T03:15:20.477Z,79.92
2022-08-04T03:20:47.310Z,81.66
2022-08-04T03:25:57.446Z,81.05
2022-08-04T03:31:13.601Z,80.66
2022-08-04T03:36:42.600Z,81.43
2022-08-04T03:42:15.803Z,81.32
2022-08-04T03:47:25.718Z,80.35
2022-08-04T03:53:10.064Z,79.12
2022-08-04T03:58:30.398Z,78.22
2022-08-04T04:04:02.639Z,78.17
2022-08-04T04:09:21.088Z,78.52
2022-08-04T04:14:46.694Z,79.99
2022-08-04T04:20:10.972Z,79.34
2022-08-04T04:25:42.571Z,78.27
2022-08-04T04:31:07.600Z,75.68
2022-08-04T04:36:12.790Z,70.00
2022-08-04T04:41:26.464Z,64.31
2022-08-04T04:46:32.470Z,58.65
2022-08-04T04:51:46.424Z,54.01
2022-08-04T04:56:51.433Z,50.52
2022-08-04T05:02:00.450Z,47.50
2022-08-04T05:07:21.828Z,45.64
2022-08-04T05:14:36.729Z,44.92
2022-08-04T05:18:28.445Z,45.63
2022-08-04T05:23:28.028Z,43.55
2022-08-04T05:28:35.229Z,42.23
2022-08-04T05:33:38.933Z,41.51
2022-08-04T05:38:39.295Z,40.13
2022-08-04T05:43:32.632Z,40.75
2022-08-04T05:48:27.765Z,40.16
2022-08-04T06:03:41.030Z,41.48
2022-08-04T06:08:35.299Z,41.71
2022-08-04T06:13:47.624Z,41.78
2022-08-04T06:24:02.437Z,43.54
2022-08-04T06:39:19.776Z,45.02
2022-08-04T06:44:16.572Z,43.84
2022-08-04T07:25:13.011Z,46.63
2022-08-04T08:38:02.998Z,45.70
2022-08-04T08:50:00.457Z,45.19
2022-08-04T08:55:17.503Z,45.77
2022-08-04T09:00:49.344Z,46.33
2022-08-04T09:55:31.230Z,44.07
2022-08-04T10:06:19.928Z,42.23
2022-08-04T10:51:05.103Z,45.58
2022-08-04T11:56:36.051Z,44.47
2022-08-04T14:08:27.331Z,36.84
2022-08-04T14:13:42.828Z,38.32
2022-08-04T14:54:51.611Z,35.66
2022-08-04T21:17:58.713Z,59.92
2022-08-04T21:53:41.949Z,63.50
2022-08-04T22:39:56.859Z,70.02
